createdAt,value
2016-12-28T00:00:11.173Z,7.88
2016-12-28T00:00:37.328Z,7.82
2016-12-28T00:01:03.438Z,7.83
2016-12-28T00:01:29.554Z,7.83
2016-12-28T00:01:55.653Z,7.82
2016-12-28T00:02:21.778Z,7.97
2016-12-28T00:02:47.892Z,7.94
2016-12-28T00:03:13.999Z,7.98
2016-12-28T00:03:40.119Z,7.97
2016-12-28T00:04:06.243Z,7.98
2016-12-28T00:04:32.391Z,7.9
2016-12-28T00:04:58.505Z,7.93
2016-12-28T00:05:24.629Z,7.77
2016-12-28T00:05:50.737Z,7.87
2016-12-28T00:06:16.848Z,7.8
2016-12-28T00:06:42.967Z,7.82
2016-12-28T00:07:09.082Z,7.67
2016-12-28T00:07:35.208Z,7.69
2016-12-28T00:08:01.306Z,7.7
2016-12-28T00:08:27.425Z,7.76
2016-12-28T00:08:53.541Z,7.69
2016-12-28T00:09:19.647Z,7.79
2016-12-28T00:09:45.757Z,7.76
2016-12-28T00:10:11.881Z,7.82
2016-12-28T00:10:37.994Z,7.85
2016-12-28T00:11:04.102Z,7.82
2016-12-28T00:11:30.231Z,7.79
2016-12-28T00:11:56.339Z,7.76
2016-12-28T00:12:22.437Z,7.82
2016-12-28T00:12:48.563Z,7.85
2016-12-28T00:13:14.679Z,7.88
2016-12-28T00:13:40.785Z,7.85
2016-12-28T00:14:06.899Z,7.83
2016-12-28T00:14:33.021Z,7.8
2016-12-28T00:14:59.126Z,7.94
2016-12-28T00:15:25.244Z,7.82
2016-12-28T00:15:51.368Z,7.88
2016-12-28T00:16:17.473Z,7.97
2016-12-28T00:16:43.587Z,7.9
2016-12-28T00:17:09.712Z,7.97
2016-12-28T00:17:35.828Z,8
2016-12-28T00:18:01.950Z,8.01
2016-12-28T00:18:28.047Z,7.98
2016-12-28T00:18:54.163Z,8.01
2016-12-28T00:19:20.282Z,8.06
2016-12-28T00:19:46.387Z,8.01
2016-12-28T00:20:12.501Z,7.94
2016-12-28T00:20:38.622Z,7.95
2016-12-28T00:21:04.735Z,7.98
2016-12-28T00:21:30.840Z,8.03
2016-12-28T00:21:56.966Z,7.95
2016-12-28T00:22:23.077Z,7.88
2016-12-28T00:22:49.181Z,7.97
2016-12-28T00:23:15.301Z,7.93
2016-12-28T00:23:41.409Z,7.88
2016-12-28T00:24:07.531Z,7.87
2016-12-28T00:24:33.641Z,8
2016-12-28T00:24:59.749Z,7.91
2016-12-28T00:25:25.869Z,7.91
2016-12-28T00:25:51.977Z,7.82
2016-12-28T00:26:18.088Z,7.85
2016-12-28T00:26:44.204Z,7.8
2016-12-28T00:27:10.321Z,7.91
2016-12-28T00:27:36.423Z,7.94
2016-12-28T00:28:02.543Z,7.9
2016-12-28T00:28:28.662Z,7.9
2016-12-28T00:28:54.772Z,7.97
2016-12-28T00:29:20.890Z,7.91
2016-12-28T00:29:46.991Z,7.93
2016-12-28T00:30:13.118Z,7.91
2016-12-28T00:30:39.224Z,7.97
2016-12-28T00:31:05.334Z,7.98
2016-12-28T00:31:31.453Z,8.01
2016-12-28T00:31:57.575Z,8.01
2016-12-28T00:32:23.682Z,7.97
2016-12-28T00:32:49.791Z,7.93
2016-12-28T00:33:15.909Z,8
2016-12-28T00:33:42.021Z,7.97
2016-12-28T00:34:08.133Z,8
2016-12-28T00:34:34.288Z,7.98
2016-12-28T00:35:00.403Z,8
2016-12-28T00:35:26.523Z,7.95
2016-12-28T00:35:52.629Z,7.98
2016-12-28T00:36:18.746Z,7.94
2016-12-28T00:36:44.870Z,7.95
2016-12-28T00:37:10.975Z,7.93
2016-12-28T00:37:37.094Z,8
2016-12-28T00:38:03.209Z,7.97
2016-12-28T00:38:29.320Z,7.94
2016-12-28T00:38:55.421Z,7.79
2016-12-28T00:39:21.552Z,7.79
2016-12-28T00:39:47.661Z,7.76
2016-12-28T00:40:13.785Z,7.9
2016-12-28T00:40:39.891Z,7.94
2016-12-28T00:41:06.005Z,7.8
2016-12-28T00:41:32.133Z,7.85
2016-12-28T00:41:58.243Z,7.82
2016-12-28T00:42:24.347Z,7.94
2016-12-28T00:42:50.503Z,7.82
2016-12-28T00:43:16.616Z,7.91
2016-12-28T00:43:42.724Z,7.94
2016-12-28T00:44:08.841Z,7.79
2016-12-28T00:44:34.957Z,7.97
2016-12-28T00:45:01.059Z,7.97
2016-12-28T00:45:27.179Z,7.93
2016-12-28T00:45:53.288Z,7.94
2016-12-28T00:46:19.411Z,7.98
2016-12-28T00:46:45.523Z,7.97
2016-12-28T00:47:11.628Z,7.93
2016-12-28T00:47:37.749Z,7.88
2016-12-28T00:48:03.863Z,7.94
2016-12-28T00:48:29.967Z,7.97
2016-12-28T00:48:56.085Z,8.03
2016-12-28T00:49:22.200Z,8
2016-12-28T00:49:48.302Z,7.91
2016-12-28T00:50:14.440Z,7.98
2016-12-28T00:50:40.568Z,7.95
2016-12-28T00:51:06.671Z,8.01
2016-12-28T00:51:32.819Z,7.95
2016-12-28T00:51:58.928Z,8
2016-12-28T00:52:25.048Z,7.98
2016-12-28T00:52:51.170Z,7.98
2016-12-28T00:53:17.278Z,7.98
2016-12-28T00:53:43.394Z,7.98
2016-12-28T00:54:09.515Z,8
2016-12-28T00:54:35.623Z,7.98
2016-12-28T00:55:01.740Z,8.01
2016-12-28T00:55:27.857Z,7.95
2016-12-28T00:55:53.970Z,8.01
2016-12-28T00:56:20.071Z,7.98
2016-12-28T00:56:46.199Z,7.98
2016-12-28T00:57:12.315Z,7.9
2016-12-28T00:57:38.421Z,7.91
2016-12-28T00:58:04.540Z,7.94
2016-12-28T00:58:30.655Z,7.8
2016-12-28T00:58:56.759Z,7.85
2016-12-28T00:59:22.880Z,7.91
2016-12-28T00:59:48.997Z,8
2016-12-28T01:00:15.102Z,7.97
2016-12-28T01:00:41.217Z,7.91
2016-12-28T01:01:07.340Z,7.94
2016-12-28T01:01:33.439Z,7.94
2016-12-28T01:01:59.551Z,7.97
2016-12-28T01:02:25.660Z,7.95
2016-12-28T01:02:51.782Z,8.05
2016-12-28T01:03:17.899Z,8
2016-12-28T01:03:43.998Z,7.94
2016-12-28T01:04:10.111Z,7.94
2016-12-28T01:04:36.230Z,7.94
2016-12-28T01:05:02.335Z,7.94
2016-12-28T01:05:28.449Z,8
2016-12-28T01:05:54.564Z,7.98
2016-12-28T01:06:20.673Z,8.01
2016-12-28T01:06:46.775Z,7.9
2016-12-28T01:07:12.905Z,7.94
2016-12-28T01:07:39.016Z,7.9
2016-12-28T01:08:05.131Z,7.93
2016-12-28T01:08:31.237Z,8.03
2016-12-28T01:08:57.383Z,8
2016-12-28T01:09:23.506Z,7.93
2016-12-28T01:09:49.614Z,7.77
2016-12-28T01:10:15.713Z,7.79
2016-12-28T01:10:41.837Z,7.85
2016-12-28T01:11:07.950Z,7.82
2016-12-28T01:11:34.059Z,7.82
2016-12-28T01:12:00.180Z,7.98
2016-12-28T01:12:26.297Z,7.94
2016-12-28T01:12:52.401Z,8
2016-12-28T01:13:18.516Z,7.94
2016-12-28T01:13:44.623Z,7.98
2016-12-28T01:14:10.746Z,8
2016-12-28T01:14:36.856Z,7.98
2016-12-28T01:15:02.955Z,7.95
2016-12-28T01:15:29.079Z,7.94
2016-12-28T01:15:55.198Z,7.91
2016-12-28T01:16:21.301Z,7.94
2016-12-28T01:16:47.422Z,7.9
2016-12-28T01:17:13.540Z,7.8
2016-12-28T01:17:39.648Z,7.87
2016-12-28T01:18:05.760Z,7.83
2016-12-28T01:18:31.887Z,7.82
2016-12-28T01:18:57.994Z,7.85
2016-12-28T01:19:24.110Z,7.85
2016-12-28T01:19:50.222Z,7.82
2016-12-28T01:20:16.365Z,7.82
2016-12-28T01:20:42.491Z,7.9
2016-12-28T01:21:08.588Z,7.69
2016-12-28T01:21:34.706Z,7.67
2016-12-28T01:22:00.834Z,7.66
2016-12-28T01:22:26.934Z,7.7
2016-12-28T01:22:53.047Z,7.8
2016-12-28T01:23:19.174Z,7.83
2016-12-28T01:23:45.284Z,7.82
2016-12-28T01:24:11.387Z,7.7
2016-12-28T01:24:37.511Z,7.76
2016-12-28T01:25:03.621Z,7.82
2016-12-28T01:25:29.738Z,7.75
2016-12-28T01:25:55.880Z,7.69
2016-12-28T01:26:21.991Z,7.72
2016-12-28T01:26:48.120Z,7.66
2016-12-28T01:27:14.225Z,7.66
2016-12-28T01:27:40.334Z,7.67
2016-12-28T01:28:06.462Z,7.79
2016-12-28T01:28:32.571Z,7.75
2016-12-28T01:28:58.673Z,7.8
2016-12-28T01:29:24.801Z,7.85
2016-12-28T01:29:50.918Z,7.79
2016-12-28T01:30:17.028Z,7.83
2016-12-28T01:30:43.134Z,7.85
2016-12-28T01:31:09.243Z,7.83
2016-12-28T01:31:35.366Z,7.94
2016-12-28T01:32:01.479Z,7.93
2016-12-28T01:32:27.580Z,7.95
2016-12-28T01:32:53.734Z,7.93
2016-12-28T01:33:19.850Z,7.87
2016-12-28T01:33:45.957Z,7.88
2016-12-28T01:34:12.080Z,7.91
2016-12-28T01:34:38.205Z,7.91
2016-12-28T01:35:04.311Z,7.82
2016-12-28T01:35:30.450Z,7.79
2016-12-28T01:35:56.560Z,7.67
2016-12-28T01:36:22.682Z,7.85
2016-12-28T01:36:48.799Z,7.69
2016-12-28T01:37:14.905Z,7.85
2016-12-28T01:37:41.022Z,7.75
2016-12-28T01:38:07.149Z,7.72
2016-12-28T01:38:33.247Z,7.67
2016-12-28T01:38:59.362Z,7.72
2016-12-28T01:39:25.485Z,7.67
2016-12-28T01:39:51.592Z,7.76
2016-12-28T01:40:17.700Z,7.73
2016-12-28T01:40:43.818Z,7.73
2016-12-28T01:41:09.924Z,7.75
2016-12-28T01:41:36.031Z,7.72
2016-12-28T01:42:02.157Z,7.69
2016-12-28T01:42:28.296Z,7.66
2016-12-28T01:42:54.399Z,7.66
2016-12-28T01:43:20.522Z,7.69
2016-12-28T01:43:46.641Z,7.69
2016-12-28T01:44:12.747Z,7.72
2016-12-28T01:44:38.864Z,7.67
2016-12-28T01:45:04.987Z,7.57
2016-12-28T01:45:31.091Z,7.67
2016-12-28T01:45:57.204Z,7.54
2016-12-28T01:46:23.321Z,7.56
2016-12-28T01:46:49.424Z,7.53
2016-12-28T01:47:15.541Z,7.5
2016-12-28T01:47:41.648Z,7.51
2016-12-28T01:48:07.763Z,7.43
2016-12-28T01:48:33.891Z,7.39
2016-12-28T01:48:59.989Z,7.48
2016-12-28T01:49:26.108Z,7.48
2016-12-28T01:49:52.232Z,7.42
2016-12-28T01:50:18.344Z,7.38
2016-12-28T01:50:44.454Z,7.38
2016-12-28T01:51:10.578Z,7.36
2016-12-28T01:51:36.687Z,7.4
2016-12-28T01:52:02.790Z,7.36
2016-12-28T01:52:28.908Z,7.33
2016-12-28T01:52:55.027Z,7.38
2016-12-28T01:53:21.143Z,7.29
2016-12-28T01:53:47.249Z,7.35
2016-12-28T01:54:13.353Z,7.33
2016-12-28T01:54:39.478Z,7.31
2016-12-28T01:55:05.587Z,7.28
2016-12-28T01:55:31.691Z,7.18
2016-12-28T01:55:57.815Z,7.18
2016-12-28T01:56:23.924Z,7.15
2016-12-28T01:56:50.029Z,7.15
2016-12-28T01:57:16.150Z,7.21
2016-12-28T01:57:42.264Z,7.18
2016-12-28T01:58:08.373Z,7.21
2016-12-28T01:58:34.481Z,7.21
2016-12-28T01:59:00.590Z,7.2
2016-12-28T01:59:26.712Z,7.18
2016-12-28T01:59:52.826Z,7.15
2016-12-28T02:00:18.975Z,7.21
2016-12-28T02:00:45.098Z,7.14
2016-12-28T02:01:11.218Z,7.07
2016-12-28T02:01:37.326Z,7.07
2016-12-28T02:02:03.445Z,7.11
2016-12-28T02:02:29.565Z,7.1
2016-12-28T02:02:55.668Z,7.05
2016-12-28T02:03:21.789Z,7.14
2016-12-28T02:03:47.898Z,7.15
2016-12-28T02:04:14.017Z,7.18
2016-12-28T02:04:40.131Z,7.11
2016-12-28T02:05:06.242Z,7.1
2016-12-28T02:05:32.362Z,7.13
2016-12-28T02:05:58.479Z,7.05
2016-12-28T02:06:24.584Z,7.15
2016-12-28T02:06:50.700Z,7.03
2016-12-28T02:07:16.821Z,7.11
2016-12-28T02:07:42.929Z,6.97
2016-12-28T02:08:09.039Z,7
2016-12-28T02:08:35.156Z,7.03
2016-12-28T02:09:01.267Z,6.95
2016-12-28T02:09:27.393Z,6.96
2016-12-28T02:09:53.492Z,6.96
2016-12-28T02:10:19.610Z,6.82
2016-12-28T02:10:45.729Z,6.81
2016-12-28T02:11:11.833Z,6.89
2016-12-28T02:11:37.946Z,6.78
2016-12-28T02:12:04.064Z,6.78
2016-12-28T02:12:30.166Z,6.79
2016-12-28T02:12:56.270Z,6.78
2016-12-28T02:13:22.396Z,6.84
2016-12-28T02:13:48.508Z,6.92
2016-12-28T02:14:14.619Z,6.88
2016-12-28T02:14:40.734Z,6.92
2016-12-28T02:15:06.846Z,6.81
2016-12-28T02:15:32.973Z,6.92
2016-12-28T02:15:59.085Z,6.79
2016-12-28T02:16:25.191Z,6.84
2016-12-28T02:16:51.318Z,6.87
2016-12-28T02:17:17.427Z,6.77
2016-12-28T02:17:43.533Z,6.88
2016-12-28T02:18:09.656Z,6.84
2016-12-28T02:18:35.808Z,6.88
2016-12-28T02:19:01.907Z,6.84
2016-12-28T02:19:28.028Z,6.82
2016-12-28T02:19:54.143Z,6.79
2016-12-28T02:20:20.257Z,6.84
2016-12-28T02:20:46.375Z,6.75
2016-12-28T02:21:12.480Z,6.78
2016-12-28T02:21:38.600Z,6.79
2016-12-28T02:22:04.718Z,6.75
2016-12-28T02:22:30.822Z,6.79
2016-12-28T02:22:56.939Z,6.72
2016-12-28T02:23:23.063Z,6.78
2016-12-28T02:23:49.160Z,6.72
2016-12-28T02:24:15.274Z,6.75
2016-12-28T02:24:41.399Z,6.82
2016-12-28T02:25:07.502Z,6.79
2016-12-28T02:25:33.616Z,6.75
2016-12-28T02:25:59.770Z,6.75
2016-12-28T02:26:25.876Z,6.77
2016-12-28T02:26:51.977Z,6.87
2016-12-28T02:27:18.099Z,6.82
2016-12-28T02:27:44.209Z,6.74
2016-12-28T02:28:10.311Z,6.75
2016-12-28T02:28:36.433Z,6.72
2016-12-28T02:29:02.550Z,6.72
2016-12-28T02:29:28.649Z,6.63
2016-12-28T02:29:54.768Z,6.67
2016-12-28T02:30:20.890Z,6.59
2016-12-28T02:30:47.043Z,6.72
2016-12-28T02:31:13.155Z,6.67
2016-12-28T02:31:39.258Z,6.72
2016-12-28T02:32:05.380Z,6.66
2016-12-28T02:32:31.500Z,6.69
2016-12-28T02:32:57.607Z,6.69
2016-12-28T02:33:23.722Z,6.74
2016-12-28T02:33:49.849Z,6.75
2016-12-28T02:34:15.951Z,6.75
2016-12-28T02:34:42.066Z,6.67
2016-12-28T02:35:08.191Z,6.57
2016-12-28T02:35:34.289Z,6.69
2016-12-28T02:36:00.404Z,6.6
2016-12-28T02:36:26.516Z,6.63
2016-12-28T02:36:52.630Z,6.54
2016-12-28T02:37:18.753Z,6.56
2016-12-28T02:37:44.853Z,6.63
2016-12-28T02:38:10.964Z,6.6
2016-12-28T02:38:37.087Z,6.59
2016-12-28T02:39:03.188Z,6.67
2016-12-28T02:39:29.304Z,6.66
2016-12-28T02:39:55.423Z,6.56
2016-12-28T02:40:21.533Z,6.59
2016-12-28T02:40:47.634Z,6.62
2016-12-28T02:41:13.762Z,6.6
2016-12-28T02:41:39.870Z,6.63
2016-12-28T02:42:05.978Z,6.56
2016-12-28T02:42:32.098Z,6.62
2016-12-28T02:42:58.207Z,6.62
2016-12-28T02:43:24.327Z,6.62
2016-12-28T02:43:50.436Z,6.59
2016-12-28T02:44:16.544Z,6.63
2016-12-28T02:44:42.665Z,6.57
2016-12-28T02:45:08.778Z,6.56
2016-12-28T02:45:34.883Z,6.59
2016-12-28T02:46:01.005Z,6.56
2016-12-28T02:46:27.120Z,6.57
2016-12-28T02:46:53.224Z,6.57
2016-12-28T02:47:19.343Z,6.56
2016-12-28T02:47:45.458Z,6.64
2016-12-28T02:48:11.567Z,6.57
2016-12-28T02:48:37.680Z,6.62
2016-12-28T02:49:03.789Z,6.6
2016-12-28T02:49:29.906Z,6.6
2016-12-28T02:49:56.020Z,6.6
2016-12-28T02:50:22.121Z,6.48
2016-12-28T02:50:48.243Z,6.52
2016-12-28T02:51:14.363Z,6.51
2016-12-28T02:51:40.462Z,6.56
2016-12-28T02:52:06.580Z,6.52
2016-12-28T02:52:32.699Z,6.56
2016-12-28T02:52:58.798Z,6.45
2016-12-28T02:53:24.907Z,6.42
2016-12-28T02:53:51.023Z,6.46
2016-12-28T02:54:17.140Z,6.41
2016-12-28T02:54:43.254Z,6.52
2016-12-28T02:55:09.356Z,6.42
2016-12-28T02:55:35.474Z,6.52
2016-12-28T02:56:01.596Z,6.56
2016-12-28T02:56:27.698Z,6.49
2016-12-28T02:56:53.809Z,6.54
2016-12-28T02:57:19.930Z,6.48
2016-12-28T02:57:46.038Z,6.54
2016-12-28T02:58:12.145Z,6.48
2016-12-28T02:58:38.275Z,6.51
2016-12-28T02:59:04.384Z,6.48
2016-12-28T02:59:30.504Z,6.46
2016-12-28T02:59:56.605Z,6.52
2016-12-28T03:00:22.719Z,6.51
2016-12-28T03:00:48.836Z,6.54
2016-12-28T03:01:14.946Z,6.56
2016-12-28T03:01:41.046Z,6.56
2016-12-28T03:02:07.171Z,6.51
2016-12-28T03:02:33.279Z,6.56
2016-12-28T03:02:59.386Z,6.44
2016-12-28T03:03:25.505Z,6.42
2016-12-28T03:03:51.618Z,6.48
2016-12-28T03:04:17.721Z,6.38
2016-12-28T03:04:43.839Z,6.48
2016-12-28T03:05:09.980Z,6.42
2016-12-28T03:05:36.103Z,6.35
2016-12-28T03:06:02.209Z,6.46
2016-12-28T03:06:28.313Z,6.44
2016-12-28T03:06:54.437Z,6.36
2016-12-28T03:07:20.555Z,6.41
2016-12-28T03:07:46.656Z,6.38
2016-12-28T03:08:12.777Z,6.41
2016-12-28T03:08:38.901Z,6.45
2016-12-28T03:09:05.005Z,6.42
2016-12-28T03:09:31.113Z,6.31
2016-12-28T03:09:57.241Z,6.31
2016-12-28T03:10:23.347Z,6.31
2016-12-28T03:10:49.492Z,6.41
2016-12-28T03:11:15.606Z,6.33
2016-12-28T03:11:41.719Z,6.35
2016-12-28T03:12:07.819Z,6.36
2016-12-28T03:12:33.947Z,6.44
2016-12-28T03:13:00.058Z,6.48
2016-12-28T03:13:26.192Z,6.35
2016-12-28T03:13:52.310Z,6.44
2016-12-28T03:14:18.423Z,6.31
2016-12-28T03:14:44.525Z,6.35
2016-12-28T03:15:10.645Z,6.38
2016-12-28T03:15:36.765Z,6.36
2016-12-28T03:16:02.870Z,6.38
2016-12-28T03:16:28.981Z,6.33
2016-12-28T03:16:55.088Z,6.31
2016-12-28T03:17:21.207Z,6.42
2016-12-28T03:17:47.319Z,6.51
2016-12-28T03:18:13.417Z,6.39
2016-12-28T03:18:39.536Z,6.45
2016-12-28T03:19:05.654Z,6.44
2016-12-28T03:19:31.756Z,6.38
2016-12-28T03:19:57.868Z,6.45
2016-12-28T03:20:23.988Z,6.35
2016-12-28T03:20:50.097Z,6.3
2016-12-28T03:21:16.234Z,6.39
2016-12-28T03:21:42.346Z,6.31
2016-12-28T03:22:08.465Z,6.3
2016-12-28T03:22:34.580Z,6.24
2016-12-28T03:23:00.683Z,6.35
2016-12-28T03:23:26.796Z,6.35
2016-12-28T03:23:52.922Z,6.39
2016-12-28T03:24:19.026Z,6.38
2016-12-28T03:24:45.139Z,6.27
2016-12-28T03:25:11.263Z,6.28
2016-12-28T03:25:37.370Z,6.33
2016-12-28T03:26:03.476Z,6.3
2016-12-28T03:26:29.603Z,6.28
2016-12-28T03:26:55.712Z,6.27
2016-12-28T03:27:21.830Z,6.27
2016-12-28T03:27:47.935Z,6.26
2016-12-28T03:28:14.052Z,6.22
2016-12-28T03:28:40.170Z,6.24
2016-12-28T03:29:06.279Z,6.26
2016-12-28T03:29:32.378Z,6.11
2016-12-28T03:29:58.506Z,6.17
2016-12-28T03:30:24.612Z,6.2
2016-12-28T03:30:50.717Z,6.09
2016-12-28T03:31:16.834Z,6.08
2016-12-28T03:31:42.950Z,6.17
2016-12-28T03:32:09.055Z,6.14
2016-12-28T03:32:35.172Z,6.3
2016-12-28T03:33:01.272Z,6.2
2016-12-28T03:33:27.395Z,6.16
2016-12-28T03:33:53.501Z,6.3
2016-12-28T03:34:19.610Z,6.09
2016-12-28T03:34:45.729Z,6.22
2016-12-28T03:35:11.842Z,6.2
2016-12-28T03:35:37.945Z,6.24
2016-12-28T03:36:04.065Z,6.16
2016-12-28T03:36:30.236Z,6.2
2016-12-28T03:36:56.337Z,6.19
2016-12-28T03:37:22.447Z,6.12
2016-12-28T03:37:48.564Z,6.14
2016-12-28T03:38:14.675Z,6.09
2016-12-28T03:38:40.789Z,6.04
2016-12-28T03:39:06.930Z,6.01
2016-12-28T03:39:33.041Z,6.07
2016-12-28T03:39:59.158Z,6.02
2016-12-28T03:40:25.264Z,6.04
2016-12-28T03:40:51.377Z,6.01
2016-12-28T03:41:17.502Z,6.02
2016-12-28T03:41:43.602Z,6.01
2016-12-28T03:42:12.741Z,6.04
2016-12-28T03:42:38.869Z,6.01
2016-12-28T03:43:04.984Z,6.04
2016-12-28T03:43:31.107Z,6.04
2016-12-28T03:43:57.231Z,6.09
2016-12-28T03:44:23.342Z,6.05
2016-12-28T03:44:49.460Z,6.09
2016-12-28T03:45:15.567Z,6.11
2016-12-28T03:45:41.677Z,6.09
2016-12-28T03:46:07.803Z,6.04
2016-12-28T03:46:33.912Z,6.04
2016-12-28T03:47:00.012Z,6.07
2016-12-28T03:47:26.138Z,6.04
2016-12-28T03:47:52.250Z,6.01
2016-12-28T03:48:18.356Z,6.05
2016-12-28T03:48:44.479Z,6.04
2016-12-28T03:49:10.599Z,6.02
2016-12-28T03:49:36.712Z,6.04
2016-12-28T03:50:02.825Z,6.05
2016-12-28T03:50:28.932Z,6.01
2016-12-28T03:50:55.056Z,6.05
2016-12-28T03:51:21.165Z,6.05
2016-12-28T03:51:47.267Z,6.04
2016-12-28T03:52:13.390Z,5.98
2016-12-28T03:52:39.508Z,6.05
2016-12-28T03:53:05.616Z,5.97
2016-12-28T03:53:31.731Z,6.02
2016-12-28T03:53:57.855Z,6.04
2016-12-28T03:54:23.952Z,6.08
2016-12-28T03:54:50.065Z,6.07
2016-12-28T03:55:16.185Z,6.08
2016-12-28T03:55:42.291Z,6.11
2016-12-28T03:56:08.408Z,6.07
2016-12-28T03:56:34.523Z,6.05
2016-12-28T03:57:00.633Z,6.11
2016-12-28T03:57:26.731Z,6.05
2016-12-28T03:57:52.860Z,6.08
2016-12-28T03:58:18.966Z,6.14
2016-12-28T03:58:45.072Z,6.11
2016-12-28T03:59:11.186Z,6.12
2016-12-28T03:59:37.306Z,6.07
2016-12-28T04:00:03.443Z,6.11
2016-12-28T04:00:29.563Z,6.22
2016-12-28T04:00:55.669Z,6.28
2016-12-28T04:01:21.788Z,6.2
2016-12-28T04:01:47.948Z,6.14
2016-12-28T04:02:14.056Z,6.16
2016-12-28T04:02:40.180Z,6.17
2016-12-28T04:03:06.294Z,6.14
2016-12-28T04:03:32.397Z,6.19
2016-12-28T04:03:58.520Z,6.2
2016-12-28T04:04:24.637Z,6.16
2016-12-28T04:04:50.740Z,6.2
2016-12-28T04:05:16.862Z,6.27
2016-12-28T04:05:42.982Z,6.28
2016-12-28T04:06:09.084Z,6.22
2016-12-28T04:06:35.200Z,6.3
2016-12-28T04:07:01.308Z,6.3
2016-12-28T04:07:27.424Z,6.33
2016-12-28T04:07:53.548Z,6.36
2016-12-28T04:08:19.645Z,6.31
2016-12-28T04:08:45.761Z,6.35
2016-12-28T04:09:11.882Z,6.39
2016-12-28T04:09:37.988Z,6.38
2016-12-28T04:10:04.094Z,6.31
2016-12-28T04:10:30.212Z,6.36
2016-12-28T04:10:56.319Z,6.31
2016-12-28T04:11:22.423Z,6.42
2016-12-28T04:11:48.542Z,6.42
2016-12-28T04:12:14.655Z,6.44
2016-12-28T04:12:40.773Z,6.42
2016-12-28T04:13:06.879Z,6.41
2016-12-28T04:13:32.989Z,6.39
2016-12-28T04:13:59.115Z,6.28
2016-12-28T04:14:25.217Z,6.26
2016-12-28T04:14:51.328Z,6.31
2016-12-28T04:15:17.452Z,6.26
2016-12-28T04:15:43.565Z,6.31
2016-12-28T04:16:09.669Z,6.22
2016-12-28T04:16:35.788Z,6.19
2016-12-28T04:17:01.896Z,6.22
2016-12-28T04:17:28.012Z,6.39
2016-12-28T04:17:54.121Z,6.28
2016-12-28T04:18:20.223Z,6.33
2016-12-28T04:18:46.347Z,6.41
2016-12-28T04:19:12.455Z,6.42
2016-12-28T04:19:38.564Z,6.41
2016-12-28T04:20:04.689Z,6.35
2016-12-28T04:20:30.797Z,6.39
2016-12-28T04:20:56.903Z,6.45
2016-12-28T04:21:23.023Z,6.44
2016-12-28T04:21:49.146Z,6.44
2016-12-28T04:22:15.242Z,6.46
2016-12-28T04:22:41.356Z,6.49
2016-12-28T04:23:07.467Z,6.41
2016-12-28T04:23:33.583Z,6.31
2016-12-28T04:23:59.694Z,6.41
2016-12-28T04:24:25.803Z,6.42
2016-12-28T04:24:51.927Z,6.46
2016-12-28T04:25:18.055Z,6.48
2016-12-28T04:25:44.154Z,6.45
2016-12-28T04:26:10.272Z,6.46
2016-12-28T04:26:36.391Z,6.52
2016-12-28T04:27:02.495Z,6.49
2016-12-28T04:27:28.601Z,6.48
2016-12-28T04:27:54.724Z,6.51
2016-12-28T04:28:20.831Z,6.45
2016-12-28T04:28:46.947Z,6.41
2016-12-28T04:29:13.049Z,6.41
2016-12-28T04:29:39.159Z,6.39
2016-12-28T04:30:05.282Z,6.44
2016-12-28T04:30:31.379Z,6.46
2016-12-28T04:30:57.493Z,6.42
2016-12-28T04:31:23.613Z,6.45
2016-12-28T04:31:49.726Z,6.44
2016-12-28T04:32:15.832Z,6.44
2016-12-28T04:32:41.953Z,6.44
2016-12-28T04:33:08.061Z,6.51
2016-12-28T04:33:34.162Z,6.45
2016-12-28T04:34:00.289Z,6.52
2016-12-28T04:34:26.428Z,6.49
2016-12-28T04:34:52.547Z,6.46
2016-12-28T04:35:18.654Z,6.39
2016-12-28T04:35:44.764Z,6.44
2016-12-28T04:36:10.884Z,6.41
2016-12-28T04:36:36.999Z,6.39
2016-12-28T04:37:03.104Z,6.3
2016-12-28T04:37:29.224Z,6.28
2016-12-28T04:37:55.336Z,6.28
2016-12-28T04:38:21.437Z,6.33
2016-12-28T04:38:47.556Z,6.27
2016-12-28T04:39:13.681Z,6.27
2016-12-28T04:39:39.779Z,6.14
2016-12-28T04:40:05.893Z,6.09
2016-12-28T04:40:32.013Z,6.12
2016-12-28T04:40:58.140Z,6.07
2016-12-28T04:41:24.252Z,6.07
2016-12-28T04:41:50.372Z,6.07
2016-12-28T04:42:16.482Z,6.16
2016-12-28T04:42:42.588Z,6.16
2016-12-28T04:43:08.707Z,6.08
2016-12-28T04:43:34.816Z,6.07
2016-12-28T04:44:00.923Z,6.14
2016-12-28T04:44:27.047Z,6.12
2016-12-28T04:44:53.159Z,6.16
2016-12-28T04:45:19.272Z,6.12
2016-12-28T04:45:45.379Z,6.14
2016-12-28T04:46:11.485Z,6.28
2016-12-28T04:46:37.607Z,6.19
2016-12-28T04:47:03.724Z,6.26
2016-12-28T04:47:29.826Z,6.17
2016-12-28T04:47:55.946Z,6.3
2016-12-28T04:48:22.055Z,6.22
2016-12-28T04:48:48.166Z,6.2
2016-12-28T04:49:14.286Z,6.22
2016-12-28T04:49:40.409Z,6.2
2016-12-28T04:50:06.508Z,6.2
2016-12-28T04:50:32.617Z,6.2
2016-12-28T04:50:58.731Z,6.12
2016-12-28T04:51:24.845Z,6.14
2016-12-28T04:51:50.961Z,6.19
2016-12-28T04:52:17.063Z,6.17
2016-12-28T04:52:43.185Z,6.07
2016-12-28T04:53:09.307Z,6.09
2016-12-28T04:53:35.409Z,6.14
2016-12-28T04:54:01.522Z,6.16
2016-12-28T04:54:27.637Z,6.17
2016-12-28T04:54:53.747Z,6.22
2016-12-28T04:55:19.884Z,6.16
2016-12-28T04:55:46.011Z,6.31
2016-12-28T04:56:12.115Z,6.31
2016-12-28T04:56:38.242Z,6.22
2016-12-28T04:57:04.345Z,6.24
2016-12-28T04:57:30.457Z,6.19
2016-12-28T04:57:56.579Z,6.26
2016-12-28T04:58:22.686Z,6.3
2016-12-28T04:58:48.794Z,6.27
2016-12-28T04:59:14.918Z,6.26
2016-12-28T04:59:41.022Z,6.28
2016-12-28T05:00:07.130Z,6.35
2016-12-28T05:00:33.252Z,6.27
2016-12-28T05:00:59.361Z,6.36
2016-12-28T05:01:25.462Z,6.33
2016-12-28T05:01:51.587Z,6.22
2016-12-28T05:02:17.695Z,6.33
2016-12-28T05:02:43.823Z,6.24
2016-12-28T05:03:09.955Z,6.28
2016-12-28T05:03:36.060Z,6.17
2016-12-28T05:04:02.178Z,6.12
2016-12-28T05:04:28.287Z,6.17
2016-12-28T05:04:54.393Z,6.2
2016-12-28T05:05:20.517Z,6.16
2016-12-28T05:05:46.634Z,6.07
2016-12-28T05:06:12.739Z,6.09
2016-12-28T05:06:38.862Z,6.11
2016-12-28T05:07:04.984Z,6.04
2016-12-28T05:07:31.088Z,6.07
2016-12-28T05:07:57.203Z,6.09
2016-12-28T05:08:23.302Z,6.14
2016-12-28T05:08:49.424Z,6.19
2016-12-28T05:09:15.531Z,6.16
2016-12-28T05:09:41.638Z,6.07
2016-12-28T05:10:07.756Z,6.2
2016-12-28T05:10:33.880Z,6.07
2016-12-28T05:10:59.981Z,6.11
2016-12-28T05:11:26.095Z,6.14
2016-12-28T05:11:52.218Z,6.16
2016-12-28T05:12:18.323Z,6.05
2016-12-28T05:12:44.433Z,6.05
2016-12-28T05:13:10.542Z,6.09
2016-12-28T05:13:36.662Z,6.17
2016-12-28T05:14:02.785Z,6.17
2016-12-28T05:14:28.883Z,6.17
2016-12-28T05:14:54.996Z,6.19
2016-12-28T05:15:21.112Z,6.19
2016-12-28T05:15:47.221Z,6.24
2016-12-28T05:16:13.328Z,6.24
2016-12-28T05:16:39.455Z,6.2
2016-12-28T05:17:05.562Z,6.11
2016-12-28T05:17:31.666Z,6.17
2016-12-28T05:17:57.789Z,6.2
2016-12-28T05:18:23.901Z,6.22
2016-12-28T05:18:50.020Z,6.28
2016-12-28T05:19:16.123Z,6.24
2016-12-28T05:19:42.231Z,6.22
2016-12-28T05:20:08.350Z,6.3
2016-12-28T05:20:34.460Z,6.35
2016-12-28T05:21:00.570Z,6.3
2016-12-28T05:21:26.692Z,6.36
2016-12-28T05:21:52.805Z,6.31
2016-12-28T05:22:18.908Z,6.28
2016-12-28T05:22:45.029Z,6.3
2016-12-28T05:23:11.143Z,6.27
2016-12-28T05:23:37.249Z,6.38
2016-12-28T05:24:03.371Z,6.27
2016-12-28T05:24:29.495Z,6.28
2016-12-28T05:24:55.591Z,6.35
2016-12-28T05:25:21.710Z,6.28
2016-12-28T05:25:47.835Z,6.35
2016-12-28T05:26:13.942Z,6.31
2016-12-28T05:26:40.055Z,6.26
2016-12-28T05:27:06.175Z,6.38
2016-12-28T05:27:32.284Z,6.28
2016-12-28T05:27:58.388Z,6.3
2016-12-28T05:28:24.516Z,6.42
2016-12-28T05:28:50.634Z,6.31
2016-12-28T05:29:16.742Z,6.35
2016-12-28T05:29:42.861Z,6.27
2016-12-28T05:30:08.964Z,6.36
2016-12-28T05:30:35.090Z,6.35
2016-12-28T05:31:01.199Z,6.3
2016-12-28T05:31:27.306Z,6.38
2016-12-28T05:31:53.428Z,6.35
2016-12-28T05:32:19.535Z,6.24
2016-12-28T05:32:45.642Z,6.26
2016-12-28T05:33:11.765Z,6.22
2016-12-28T05:33:37.877Z,6.31
2016-12-28T05:34:03.979Z,6.27
2016-12-28T05:34:30.094Z,6.28
2016-12-28T05:34:56.212Z,6.38
2016-12-28T05:35:22.319Z,6.28
2016-12-28T05:35:48.428Z,6.35
2016-12-28T05:36:14.523Z,6.39
2016-12-28T05:36:40.650Z,6.39
2016-12-28T05:37:06.763Z,6.33
2016-12-28T05:37:32.871Z,6.3
2016-12-28T05:37:58.984Z,6.35
2016-12-28T05:38:25.132Z,6.24
2016-12-28T05:38:51.240Z,6.27
2016-12-28T05:39:17.356Z,6.24
2016-12-28T05:39:43.479Z,6.14
2016-12-28T05:40:09.587Z,6.22
2016-12-28T05:40:35.704Z,6.14
2016-12-28T05:41:01.810Z,6.12
2016-12-28T05:41:27.928Z,6.22
2016-12-28T05:41:54.055Z,6.14
2016-12-28T05:42:20.156Z,6.22
2016-12-28T05:42:46.270Z,6.16
2016-12-28T05:43:12.390Z,6.19
2016-12-28T05:43:38.496Z,6.14
2016-12-28T05:44:04.613Z,6.2
2016-12-28T05:44:30.731Z,6.17
2016-12-28T05:44:56.842Z,6.16
2016-12-28T05:45:22.948Z,6.14
2016-12-28T05:45:49.067Z,6.14
2016-12-28T05:46:15.186Z,6.07
2016-12-28T05:46:41.283Z,6.02
2016-12-28T05:47:07.407Z,6.09
2016-12-28T05:47:33.524Z,6.01
2016-12-28T05:47:59.630Z,6.04
2016-12-28T05:48:25.748Z,6.02
2016-12-28T05:48:51.862Z,6.02
2016-12-28T05:49:17.968Z,6.05